METAR Data
IDs: Format: Raw Decoded Include TAF

Data at: 2053 UTC 01 Dec 2021

LUKK 012030Z 21003KT CAVOK M01/M03 Q1008 NOSIG